createdAt,value
2023-05-19T00:01:33.301Z,69.37
2023-05-19T00:04:02.820Z,73.39
2023-05-19T00:06:32.588Z,75.07
2023-05-19T00:09:03.096Z,75.32
2023-05-19T00:11:31.390Z,70.74
2023-05-19T00:14:00.740Z,71.03
2023-05-19T00:16:30.936Z,73.39
2023-05-19T00:19:00.142Z,72.63
2023-05-19T00:21:28.271Z,71.54
2023-05-19T00:23:56.326Z,69.47
2023-05-19T00:26:24.458Z,71.76
2023-05-19T00:28:52.252Z,71.82
2023-05-19T00:31:20.266Z,71.26
2023-05-19T00:33:49.316Z,73.10
2023-05-19T00:36:17.099Z,73.48
2023-05-19T00:38:44.766Z,73.58
2023-05-19T00:41:12.822Z,72.10
2023-05-19T00:43:40.475Z,74.88
2023-05-19T00:46:08.264Z,73.51
2023-05-19T00:48:35.979Z,73.72
2023-05-19T00:51:06.614Z,74.02
2023-05-19T00:53:35.728Z,72.70
2023-05-19T00:56:04.451Z,71.15
2023-05-19T00:58:32.714Z,71.21
2023-05-19T01:01:03.651Z,71.76
2023-05-19T01:03:35.027Z,71.04
2023-05-19T01:06:05.886Z,71.92
2023-05-19T01:08:34.208Z,70.76
2023-05-19T01:11:02.017Z,71.10
2023-05-19T01:13:30.298Z,71.31
2023-05-19T01:16:02.654Z,71.72
2023-05-19T01:18:40.304Z,75.39
2023-05-19T01:21:44.456Z,73.42
2023-05-19T01:24:32.370Z,74.14
2023-05-19T01:27:28.745Z,75.46
2023-05-19T01:30:34.810Z,76.25
2023-05-19T01:33:06.621Z,75.88
2023-05-19T01:35:36.437Z,77.20
2023-05-19T01:38:06.178Z,74.11
2023-05-19T01:40:34.667Z,72.28
2023-05-19T01:43:03.213Z,71.46
2023-05-19T01:45:34.117Z,72.01
2023-05-19T01:48:04.403Z,71.03
2023-05-19T01:50:34.944Z,72.88
2023-05-19T01:53:02.951Z,71.22
2023-05-19T01:55:30.889Z,72.48
2023-05-19T01:58:07.916Z,71.40
2023-05-19T02:00:50.452Z,71.88
2023-05-19T02:03:30.696Z,72.73
2023-05-19T02:06:06.843Z,72.13
2023-05-19T02:08:42.505Z,74.56
2023-05-19T02:11:15.906Z,74.28
2023-05-19T02:13:46.330Z,74.64
2023-05-19T02:16:17.534Z,74.92
2023-05-19T02:18:48.065Z,72.94
2023-05-19T02:21:16.119Z,71.38
2023-05-19T02:23:43.819Z,72.98
2023-05-19T02:26:11.458Z,72.48
2023-05-19T02:28:39.128Z,71.19
2023-05-19T02:31:08.951Z,70.04
2023-05-19T02:33:38.008Z,70.44
2023-05-19T02:36:06.517Z,70.65
2023-05-19T02:38:34.184Z,69.73
2023-05-19T02:41:01.834Z,70.63
2023-05-19T02:43:30.595Z,70.09
2023-05-19T02:45:58.388Z,70.32
2023-05-19T02:48:26.101Z,70.72
2023-05-19T02:50:55.157Z,70.99
2023-05-19T02:53:22.798Z,70.73
2023-05-19T02:55:50.499Z,70.30
2023-05-19T02:58:18.679Z,71.42
2023-05-19T03:00:46.376Z,70.83
2023-05-19T03:03:15.057Z,71.04
2023-05-19T03:05:42.923Z,71.33
2023-05-19T03:08:11.990Z,70.88
2023-05-19T03:10:39.721Z,71.69
2023-05-19T03:13:07.410Z,72.30
2023-05-19T03:15:36.545Z,72.06
2023-05-19T03:18:04.364Z,72.98
2023-05-19T03:20:32.251Z,70.76
2023-05-19T03:23:00.016Z,70.97
2023-05-19T03:25:30.027Z,70.24
2023-05-19T03:27:57.732Z,70.58
2023-05-19T03:30:25.399Z,70.63
2023-05-19T03:32:53.276Z,70.23
2023-05-19T03:35:21.231Z,71.65
2023-05-19T03:37:48.938Z,72.08
2023-05-19T03:40:18.820Z,70.94
2023-05-19T03:42:47.846Z,71.19
2023-05-19T03:45:15.673Z,70.27
2023-05-19T03:47:43.419Z,70.92
2023-05-19T03:50:11.736Z,71.44
2023-05-19T03:52:39.774Z,72.98
2023-05-19T03:55:08.650Z,72.98
2023-05-19T03:57:36.352Z,74.37
2023-05-19T04:00:07.051Z,73.90
2023-05-19T04:02:34.888Z,76.24
2023-05-19T04:05:04.870Z,75.25
2023-05-19T04:07:32.624Z,75.26
2023-05-19T04:10:00.569Z,72.66
2023-05-19T04:12:28.261Z,74.59
2023-05-19T04:14:55.968Z,74.17
2023-05-19T04:17:26.385Z,74.13
2023-05-19T04:19:54.356Z,74.38
2023-05-19T04:22:22.021Z,74.60
2023-05-19T04:24:50.583Z,73.86
2023-05-19T04:27:18.349Z,72.75
2023-05-19T04:29:48.295Z,71.04
2023-05-19T04:32:17.645Z,71.37
2023-05-19T04:34:46.970Z,70.87
2023-05-19T04:37:16.147Z,71.27
2023-05-19T04:39:45.342Z,72.31
2023-05-19T04:42:13.321Z,72.40
2023-05-19T04:44:41.062Z,71.44
2023-05-19T04:47:09.190Z,70.35
2023-05-19T04:49:39.529Z,72.38
2023-05-19T04:52:10.912Z,73.09
2023-05-19T04:54:39.716Z,77.03
2023-05-19T04:57:07.776Z,72.66
2023-05-19T04:59:35.433Z,71.91
2023-05-19T05:02:04.249Z,72.09
2023-05-19T05:04:32.475Z,73.18
2023-05-19T05:07:00.182Z,72.85
2023-05-19T05:09:29.285Z,69.54
2023-05-19T05:11:57.473Z,68.28
2023-05-19T05:14:25.728Z,66.34
2023-05-19T05:16:54.146Z,71.66
2023-05-19T05:19:23.116Z,69.79
2023-05-19T05:21:52.131Z,71.51
2023-05-19T05:24:20.546Z,72.79
2023-05-19T05:26:50.104Z,73.19
2023-05-19T05:29:17.780Z,74.32
2023-05-19T05:31:45.477Z,72.95
2023-05-19T05:34:13.266Z,73.39
2023-05-19T05:36:41.328Z,73.69
2023-05-19T05:39:09.006Z,73.74
2023-05-19T05:41:36.722Z,73.22
2023-05-19T05:44:06.360Z,76.77
2023-05-19T05:46:34.111Z,75.13
2023-05-19T05:49:02.399Z,76.61
2023-05-19T05:51:32.829Z,75.10
2023-05-19T05:54:02.417Z,72.99
2023-05-19T05:56:30.614Z,74.78
2023-05-19T05:58:58.627Z,75.86
2023-05-19T06:01:28.145Z,71.96
2023-05-19T06:03:55.820Z,71.95
2023-05-19T06:06:23.462Z,69.60
2023-05-19T06:08:51.134Z,69.54
2023-05-19T06:11:19.661Z,69.45
2023-05-19T06:13:47.443Z,71.22
2023-05-19T06:16:15.161Z,71.88
2023-05-19T06:18:44.318Z,72.91
2023-05-19T06:21:13.253Z,70.17
2023-05-19T06:23:41.095Z,67.63
2023-05-19T06:26:08.770Z,68.44
2023-05-19T06:28:36.452Z,71.29
2023-05-19T06:31:04.296Z,69.34
2023-05-19T06:33:31.983Z,67.26
2023-05-19T06:36:01.083Z,68.39
2023-05-19T06:38:28.852Z,64.38
2023-05-19T06:40:56.681Z,64.57
2023-05-19T06:43:25.728Z,60.63
2023-05-19T06:45:53.456Z,58.05
2023-05-19T06:48:21.136Z,60.48
2023-05-19T06:50:48.928Z,59.13
2023-05-19T06:53:18.062Z,51.92
2023-05-19T06:55:58.075Z,47.32
2023-05-19T06:58:27.316Z,53.74
2023-05-19T07:00:55.315Z,49.82
2023-05-19T07:03:23.459Z,47.02
2023-05-19T07:05:51.431Z,46.86
2023-05-19T07:08:20.471Z,47.75
2023-05-19T07:10:48.257Z,48.98
2023-05-19T07:13:16.313Z,45.46
2023-05-19T07:15:44.010Z,48.56
2023-05-19T07:18:11.709Z,53.80
2023-05-19T07:20:39.394Z,55.79
2023-05-19T07:23:07.202Z,54.35
2023-05-19T07:25:36.330Z,51.63
2023-05-19T07:28:04.189Z,51.82
2023-05-19T07:30:32.127Z,51.59
2023-05-19T07:33:00.070Z,55.79
2023-05-19T07:35:27.916Z,51.24
2023-05-19T07:37:55.584Z,51.59
2023-05-19T07:40:23.231Z,52.14
2023-05-19T07:42:53.423Z,52.41
2023-05-19T07:45:21.234Z,51.83
2023-05-19T07:47:48.920Z,45.95
2023-05-19T07:50:17.382Z,47.54
2023-05-19T07:52:45.065Z,52.74
2023-05-19T07:55:13.542Z,52.19
2023-05-19T07:57:41.522Z,53.36
2023-05-19T08:00:11.907Z,50.62
2023-05-19T08:02:39.760Z,49.55
2023-05-19T08:05:09.224Z,47.75
2023-05-19T08:07:37.136Z,50.45
2023-05-19T08:10:05.388Z,50.32
2023-05-19T08:12:33.051Z,48.07
2023-05-19T08:15:01.847Z,51.44
2023-05-19T08:17:31.149Z,54.70
2023-05-19T08:19:58.831Z,53.01
2023-05-19T08:22:26.712Z,47.36
2023-05-19T08:24:54.411Z,43.54
2023-05-19T08:27:22.067Z,44.61
2023-05-19T08:29:49.808Z,45.45
2023-05-19T08:32:17.975Z,49.19
2023-05-19T08:34:46.972Z,44.19
2023-05-19T08:37:14.657Z,45.36
2023-05-19T08:39:42.371Z,46.26
2023-05-19T08:42:10.208Z,50.39
2023-05-19T08:44:40.053Z,49.69
2023-05-19T08:47:13.871Z,49.66
2023-05-19T08:49:45.844Z,51.37
2023-05-19T08:52:25.427Z,53.79
2023-05-19T08:55:00.820Z,49.39
2023-05-19T08:57:29.672Z,48.30
2023-05-19T08:59:59.485Z,47.95
2023-05-19T09:02:28.392Z,48.50
2023-05-19T09:04:57.803Z,50.48
2023-05-19T09:07:27.977Z,52.57
2023-05-19T09:09:56.440Z,52.29
2023-05-19T09:12:24.372Z,49.78
2023-05-19T09:14:52.261Z,48.63
2023-05-19T09:17:19.908Z,51.60
2023-05-19T09:19:49.625Z,50.85
2023-05-19T09:22:19.259Z,50.08
2023-05-19T09:24:48.468Z,50.50
2023-05-19T09:27:22.124Z,49.91
2023-05-19T09:29:49.852Z,49.46
2023-05-19T09:32:26.201Z,48.51
2023-05-19T09:34:55.063Z,48.69
2023-05-19T09:37:24.338Z,50.42
2023-05-19T09:39:54.465Z,49.92
2023-05-19T09:42:26.868Z,49.53
2023-05-19T09:45:01.260Z,48.60
2023-05-19T09:47:29.173Z,49.40
2023-05-19T09:49:58.521Z,49.80
2023-05-19T09:52:27.332Z,49.72
2023-05-19T09:54:57.928Z,47.24
2023-05-19T09:57:26.861Z,48.38
2023-05-19T09:59:57.138Z,49.75
2023-05-19T10:02:27.064Z,48.96
2023-05-19T10:04:56.154Z,48.33
2023-05-19T10:07:25.122Z,48.93
2023-05-19T10:09:56.584Z,49.14
2023-05-19T10:12:27.979Z,47.63
2023-05-19T10:14:56.554Z,48.13
2023-05-19T10:17:26.122Z,46.34
2023-05-19T10:19:54.751Z,47.28
2023-05-19T10:22:22.569Z,48.00
2023-05-19T10:24:50.538Z,47.64
2023-05-19T10:27:19.389Z,47.22
2023-05-19T10:29:51.348Z,47.76
2023-05-19T10:32:24.153Z,47.89
2023-05-19T10:35:17.626Z,46.05
2023-05-19T10:37:51.890Z,45.90
2023-05-19T10:40:27.492Z,45.80
2023-05-19T10:43:04.100Z,45.53
2023-05-19T10:45:37.616Z,47.57
2023-05-19T10:48:05.680Z,46.80
2023-05-19T10:50:37.662Z,46.72
2023-05-19T10:53:05.502Z,47.96
2023-05-19T10:55:47.528Z,46.48
2023-05-19T10:58:15.539Z,45.06
2023-05-19T11:00:44.697Z,45.57
2023-05-19T11:03:16.240Z,44.97
2023-05-19T11:05:45.687Z,45.27
2023-05-19T11:08:13.971Z,44.45
2023-05-19T11:10:45.327Z,43.58
2023-05-19T11:13:22.701Z,44.27
2023-05-19T11:15:52.872Z,45.04
2023-05-19T11:18:21.299Z,45.54
2023-05-19T11:20:58.580Z,44.96
2023-05-19T11:23:26.730Z,45.86
2023-05-19T11:25:54.766Z,44.60
2023-05-19T11:28:25.941Z,45.31
2023-05-19T11:30:57.521Z,47.17
2023-05-19T11:33:27.217Z,44.78
2023-05-19T11:35:57.943Z,43.04
2023-05-19T11:38:26.005Z,43.73
2023-05-19T11:40:54.422Z,45.15
2023-05-19T11:43:24.294Z,43.38
2023-05-19T11:45:52.280Z,42.39
2023-05-19T11:48:23.684Z,42.23
2023-05-19T11:50:52.407Z,41.42
2023-05-19T11:53:20.991Z,44.71
2023-05-19T11:55:49.785Z,41.59
2023-05-19T11:58:18.034Z,37.56
2023-05-19T12:00:47.746Z,38.06
2023-05-19T12:03:17.440Z,38.31
2023-05-19T12:05:49.861Z,41.21
2023-05-19T12:08:18.549Z,42.50
2023-05-19T12:10:49.163Z,41.33
2023-05-19T12:13:16.829Z,40.80
2023-05-19T12:15:44.542Z,41.00
2023-05-19T12:18:12.394Z,41.10
2023-05-19T12:20:40.265Z,40.87
2023-05-19T12:23:09.890Z,41.68
2023-05-19T12:25:38.334Z,42.13
2023-05-19T12:28:06.424Z,41.37
2023-05-19T12:30:35.231Z,42.72
2023-05-19T12:33:03.890Z,41.78
2023-05-19T12:35:33.502Z,41.47
2023-05-19T12:38:04.690Z,40.08
2023-05-19T12:40:35.129Z,41.23
2023-05-19T12:43:03.411Z,41.53
2023-05-19T12:45:35.571Z,42.69
2023-05-19T12:48:04.750Z,41.24
2023-05-19T12:50:32.880Z,40.78
2023-05-19T12:53:00.846Z,40.65
2023-05-19T12:55:28.554Z,40.56
2023-05-19T12:57:59.105Z,39.54
2023-05-19T13:00:28.997Z,40.82
2023-05-19T13:03:00.278Z,43.05
2023-05-19T13:05:29.205Z,42.88
2023-05-19T13:07:58.312Z,43.42
2023-05-19T13:10:28.013Z,44.26
2023-05-19T13:12:57.425Z,41.99
2023-05-19T13:15:27.068Z,42.62
2023-05-19T13:17:55.541Z,40.12
2023-05-19T13:20:24.300Z,41.63
2023-05-19T13:22:52.825Z,43.55
2023-05-19T13:25:21.339Z,41.49
2023-05-19T13:27:49.913Z,42.47
2023-05-19T13:30:19.538Z,43.17
2023-05-19T13:32:47.276Z,44.42
2023-05-19T13:35:15.997Z,43.67
2023-05-19T13:37:43.994Z,42.67
2023-05-19T13:40:12.591Z,43.59
2023-05-19T13:42:40.570Z,42.86
2023-05-19T13:45:09.633Z,41.21
2023-05-19T13:47:39.759Z,42.37
2023-05-19T13:50:08.560Z,41.92
2023-05-19T13:52:36.326Z,41.67
2023-05-19T13:55:04.169Z,43.23
2023-05-19T13:57:31.884Z,42.14
2023-05-19T14:00:02.746Z,42.24
2023-05-19T14:02:32.094Z,43.47
2023-05-19T14:05:01.811Z,43.70
2023-05-19T14:07:30.129Z,41.49
2023-05-19T14:09:57.800Z,44.50
2023-05-19T14:12:35.372Z,45.04
2023-05-19T14:15:09.156Z,43.63
2023-05-19T14:17:37.565Z,43.64
2023-05-19T14:20:08.016Z,43.69
2023-05-19T14:22:35.639Z,43.73
2023-05-19T14:25:03.830Z,43.87
2023-05-19T14:27:31.584Z,43.28
2023-05-19T14:29:59.374Z,41.98
2023-05-19T14:32:30.082Z,41.01
2023-05-19T14:34:58.164Z,41.22
2023-05-19T14:37:28.931Z,43.77
2023-05-19T14:40:01.344Z,42.62
2023-05-19T14:42:29.040Z,42.77
2023-05-19T14:44:56.939Z,45.60
2023-05-19T14:47:26.201Z,46.38
2023-05-19T14:49:54.701Z,47.27
2023-05-19T14:52:22.705Z,46.28
2023-05-19T14:54:51.807Z,47.05
2023-05-19T14:57:19.555Z,47.77
2023-05-19T14:59:47.250Z,47.16
2023-05-19T15:02:14.924Z,46.65
2023-05-19T15:04:42.824Z,47.70
2023-05-19T15:07:11.090Z,47.30
2023-05-19T15:09:39.135Z,47.04
2023-05-19T15:12:08.714Z,45.29
2023-05-19T15:14:36.425Z,45.11
2023-05-19T15:17:04.156Z,44.71
2023-05-19T15:19:32.075Z,44.85
2023-05-19T15:21:59.894Z,47.02
2023-05-19T15:24:28.112Z,45.62
2023-05-19T15:26:56.457Z,47.23
2023-05-19T15:29:25.545Z,47.98
2023-05-19T15:31:53.385Z,48.84
2023-05-19T15:34:21.468Z,48.22
2023-05-19T15:36:49.282Z,49.61
2023-05-19T15:39:17.040Z,49.24
2023-05-19T15:41:44.711Z,47.59
2023-05-19T15:44:12.385Z,47.04
2023-05-19T15:46:41.524Z,49.42
2023-05-19T15:49:09.368Z,49.95
2023-05-19T15:51:40.723Z,49.28
2023-05-19T15:54:08.410Z,49.43
2023-05-19T15:56:36.093Z,50.65
2023-05-19T15:59:03.804Z,50.22
2023-05-19T16:01:31.658Z,49.30
2023-05-19T16:04:03.572Z,50.14
2023-05-19T16:06:31.640Z,49.46
2023-05-19T16:08:59.404Z,47.91
2023-05-19T16:11:27.277Z,46.96
2023-05-19T16:13:54.955Z,47.04
2023-05-19T16:16:22.697Z,48.54
2023-05-19T16:18:50.550Z,48.07
2023-05-19T16:21:19.649Z,46.94
2023-05-19T16:23:47.553Z,49.65
2023-05-19T16:26:15.356Z,49.49
2023-05-19T16:28:43.008Z,50.37
2023-05-19T16:31:10.797Z,49.16
2023-05-19T16:33:38.541Z,48.56
2023-05-19T16:36:06.468Z,47.95
2023-05-19T16:38:35.488Z,48.52
2023-05-19T16:41:05.169Z,47.80
2023-05-19T16:43:33.424Z,50.17
2023-05-19T16:46:03.404Z,50.44
2023-05-19T16:48:31.374Z,49.48
2023-05-19T16:50:59.876Z,48.21
2023-05-19T16:53:27.802Z,47.22
2023-05-19T16:55:58.963Z,49.61
2023-05-19T16:58:28.006Z,49.89
2023-05-19T17:00:57.736Z,48.88
2023-05-19T17:03:25.674Z,49.11
2023-05-19T17:05:53.479Z,48.99
2023-05-19T17:08:21.218Z,50.92
2023-05-19T17:10:48.946Z,51.59
2023-05-19T17:13:17.996Z,51.43
2023-05-19T17:15:45.673Z,50.02
2023-05-19T17:18:13.421Z,52.84
2023-05-19T17:20:41.578Z,50.37
2023-05-19T17:23:09.341Z,50.83
2023-05-19T17:25:37.188Z,50.16
2023-05-19T17:28:05.159Z,51.43
2023-05-19T17:30:34.695Z,51.80
2023-05-19T17:33:02.643Z,51.58
2023-05-19T17:35:30.292Z,52.35
2023-05-19T17:37:58.021Z,51.96
2023-05-19T17:40:25.951Z,52.57
2023-05-19T17:42:53.648Z,51.96
2023-05-19T17:45:21.511Z,52.83
2023-05-19T17:47:50.548Z,52.96
2023-05-19T17:50:18.294Z,51.21
2023-05-19T17:52:46.478Z,52.40
2023-05-19T17:55:14.915Z,53.16
2023-05-19T17:57:45.418Z,52.65
2023-05-19T18:00:14.272Z,53.32
2023-05-19T18:02:42.433Z,53.11
2023-05-19T18:05:12.858Z,52.38
2023-05-19T18:07:43.149Z,52.69
2023-05-19T18:10:12.730Z,53.52
2023-05-19T18:12:40.431Z,54.21
2023-05-19T18:15:08.887Z,53.61
2023-05-19T18:17:36.646Z,52.89
2023-05-19T18:20:05.304Z,53.01
2023-05-19T18:22:34.349Z,52.10
2023-05-19T18:25:02.034Z,51.50
2023-05-19T18:27:29.830Z,50.95
2023-05-19T18:29:57.673Z,55.82
2023-05-19T18:32:25.359Z,55.01
2023-05-19T18:34:53.128Z,55.15
2023-05-19T18:37:20.815Z,55.22
2023-05-19T18:39:49.905Z,55.52
2023-05-19T18:42:17.615Z,53.63
2023-05-19T18:44:46.764Z,54.14
2023-05-19T18:47:15.053Z,54.74
2023-05-19T18:49:43.156Z,54.35
2023-05-19T18:52:11.097Z,54.14
2023-05-19T18:54:40.544Z,55.61
2023-05-19T18:57:09.816Z,53.67
2023-05-19T18:59:37.520Z,52.08
2023-05-19T19:02:05.385Z,50.96
2023-05-19T19:04:33.169Z,52.99
2023-05-19T19:07:01.322Z,54.88
2023-05-19T19:09:29.041Z,54.51
2023-05-19T19:11:56.741Z,52.78
2023-05-19T19:14:25.723Z,51.73
2023-05-19T19:16:53.539Z,53.01
2023-05-19T19:19:23.638Z,51.85
2023-05-19T19:21:51.585Z,53.73
2023-05-19T19:24:19.234Z,54.91
2023-05-19T19:26:46.910Z,53.02
2023-05-19T19:29:16.656Z,51.92
2023-05-19T19:31:45.808Z,55.74
2023-05-19T19:34:13.625Z,55.35
2023-05-19T19:36:41.314Z,55.27
2023-05-19T19:39:09.461Z,55.09
2023-05-19T19:41:37.512Z,56.52
2023-05-19T19:44:05.600Z,54.88
2023-05-19T19:46:33.322Z,54.87
2023-05-19T19:49:02.459Z,54.34
2023-05-19T19:51:30.263Z,54.95
2023-05-19T19:53:58.151Z,55.19
2023-05-19T19:56:27.511Z,54.41
2023-05-19T19:58:56.870Z,56.09
2023-05-19T20:01:27.515Z,57.87
2023-05-19T20:03:55.877Z,57.98
2023-05-19T20:06:25.160Z,58.31
2023-05-19T20:08:52.858Z,56.11
2023-05-19T20:11:22.856Z,56.69
2023-05-19T20:13:50.593Z,55.55
2023-05-19T20:16:18.327Z,58.64
2023-05-19T20:18:46.141Z,56.58
2023-05-19T20:21:13.909Z,57.89
2023-05-19T20:23:43.073Z,56.31
2023-05-19T20:26:13.434Z,57.13
2023-05-19T20:28:41.605Z,57.74
2023-05-19T20:31:09.810Z,58.72
2023-05-19T20:33:37.448Z,59.29
2023-05-19T20:36:06.553Z,59.78
2023-05-19T20:38:34.307Z,60.17
2023-05-19T20:41:03.865Z,59.29
2023-05-19T20:43:32.810Z,60.64
2023-05-19T20:46:01.625Z,60.24
2023-05-19T20:50:57.361Z,61.07
2023-05-19T20:53:25.108Z,60.16
2023-05-19T20:55:53.150Z,59.34
2023-05-19T20:58:22.255Z,61.62
2023-05-19T21:00:56.790Z,60.30
2023-05-19T21:03:24.789Z,60.67
2023-05-19T21:05:52.421Z,60.51
2023-05-19T21:08:20.128Z,60.22
2023-05-19T21:10:48.001Z,58.21
2023-05-19T21:13:15.678Z,60.21
2023-05-19T21:15:44.712Z,59.27
2023-05-19T21:18:13.251Z,58.74
2023-05-19T21:20:42.001Z,60.42
2023-05-19T21:23:09.710Z,59.79
2023-05-19T21:25:37.412Z,59.08
2023-05-19T21:28:06.024Z,59.33
2023-05-19T21:30:33.997Z,58.78
2023-05-19T21:33:03.324Z,57.37
2023-05-19T21:35:31.418Z,56.81
2023-05-19T21:38:03.878Z,55.61
2023-05-19T21:40:36.809Z,58.33
2023-05-19T21:43:05.841Z,57.30
2023-05-19T21:45:33.538Z,58.87
2023-05-19T21:48:01.258Z,57.10
2023-05-19T21:50:36.548Z,56.28
2023-05-19T21:53:04.311Z,57.22
2023-05-19T21:55:31.985Z,56.07
2023-05-19T21:58:01.654Z,55.96
2023-05-19T22:00:30.324Z,56.68
2023-05-19T22:02:58.139Z,56.56
2023-05-19T22:05:25.896Z,55.66
2023-05-19T22:07:54.915Z,54.74
2023-05-19T22:10:22.876Z,56.68
2023-05-19T22:12:50.681Z,56.36
2023-05-19T22:15:18.500Z,55.52
2023-05-19T22:17:46.232Z,54.98
2023-05-19T22:20:13.924Z,56.43
2023-05-19T22:22:42.048Z,55.55
2023-05-19T22:25:11.209Z,55.49
2023-05-19T22:27:38.892Z,54.43
2023-05-19T22:30:08.747Z,54.45
2023-05-19T22:32:36.990Z,55.50
2023-05-19T22:35:06.548Z,54.51
2023-05-19T22:37:34.486Z,53.97
2023-05-19T22:40:02.138Z,54.75
2023-05-19T22:42:31.344Z,55.72
2023-05-19T22:44:59.122Z,54.54
2023-05-19T22:47:26.961Z,53.40
2023-05-19T22:49:55.625Z,54.30
2023-05-19T22:52:24.782Z,53.91
2023-05-19T22:54:52.445Z,54.73
2023-05-19T22:57:20.211Z,54.13
2023-05-19T22:59:49.250Z,54.01
2023-05-19T23:02:16.887Z,52.50
2023-05-19T23:04:44.539Z,53.64
2023-05-19T23:07:12.232Z,53.52
2023-05-19T23:09:39.923Z,53.93
2023-05-19T23:12:08.191Z,53.41
2023-05-19T23:14:36.140Z,52.04
2023-05-19T23:17:05.502Z,50.77
2023-05-19T23:19:34.953Z,51.64
2023-05-19T23:22:02.591Z,53.72
2023-05-19T23:24:30.478Z,52.59
2023-05-19T23:26:58.267Z,53.52
2023-05-19T23:29:26.206Z,52.30
2023-05-19T23:31:54.023Z,51.64
2023-05-19T23:34:23.171Z,54.03
2023-05-19T23:36:50.864Z,54.71
2023-05-19T23:39:18.543Z,53.90
2023-05-19T23:41:46.269Z,52.54
2023-05-19T23:44:13.896Z,54.49
2023-05-19T23:46:41.904Z,53.23
2023-05-19T23:49:09.649Z,53.61
2023-05-19T23:51:38.758Z,52.54
2023-05-19T23:54:06.494Z,51.91
2023-05-19T23:56:34.203Z,52.29
2023-05-19T23:59:01.888Z,52.68
